sensor_id;sensor_type;location;lat;lon;timestamp;P1;durP1;ratioP1;P2;durP2;ratioP2
55330;SDS011;58851;42.984;20.336;2023-02-24T00:01:15;238.65;;;142.85;;
55330;SDS011;58851;42.984;20.336;2023-02-24T00:03:50;212.48;;;127.90;;
55330;SDS011;58851;42.984;20.336;2023-02-24T00:06:16;191.65;;;115.13;;
55330;SDS011;58851;42.984;20.336;2023-02-24T00:08:42;162.43;;;104.15;;
55330;SDS011;58851;42.984;20.336;2023-02-24T00:11:09;194.65;;;116.70;;
55330;SDS011;58851;42.984;20.336;2023-02-24T00:13:39;190.55;;;112.07;;
55330;SDS011;58851;42.984;20.336;2023-02-24T00:16:05;216.27;;;123.93;;
55330;SDS011;58851;42.984;20.336;2023-02-24T00:18:32;217.43;;;129.15;;
55330;SDS011;58851;42.984;20.336;2023-02-24T00:21:03;233.60;;;138.85;;
55330;SDS011;58851;42.984;20.336;2023-02-24T00:23:32;203.55;;;119.45;;
55330;SDS011;58851;42.984;20.336;2023-02-24T00:26:00;161.90;;;99.57;;
55330;SDS011;58851;42.984;20.336;2023-02-24T00:28:27;147.55;;;90.93;;
55330;SDS011;58851;42.984;20.336;2023-02-24T00:30:53;138.55;;;84.82;;
55330;SDS011;58851;42.984;20.336;2023-02-24T00:33:21;153.65;;;96.53;;
55330;SDS011;58851;42.984;20.336;2023-02-24T00:35:49;176.40;;;101.55;;
55330;SDS011;58851;42.984;20.336;2023-02-24T00:38:15;213.07;;;129.65;;
55330;SDS011;58851;42.984;20.336;2023-02-24T00:40:41;217.27;;;134.60;;
55330;SDS011;58851;42.984;20.336;2023-02-24T00:43:10;219.57;;;125.90;;
55330;SDS011;58851;42.984;20.336;2023-02-24T00:45:36;284.65;;;147.40;;
55330;SDS011;58851;42.984;20.336;2023-02-24T00:48:05;231.95;;;129.27;;
55330;SDS011;58851;42.984;20.336;2023-02-24T00:50:34;218.82;;;121.18;;
55330;SDS011;58851;42.984;20.336;2023-02-24T00:53:03;190.00;;;107.55;;
55330;SDS011;58851;42.984;20.336;2023-02-24T00:55:29;150.05;;;89.78;;
55330;SDS011;58851;42.984;20.336;2023-02-24T00:58:00;154.02;;;89.75;;
55330;SDS011;58851;42.984;20.336;2023-02-24T01:00:28;133.48;;;79.40;;
55330;SDS011;58851;42.984;20.336;2023-02-24T01:02:54;114.57;;;69.43;;
55330;SDS011;58851;42.984;20.336;2023-02-24T01:05:23;102.32;;;63.95;;
55330;SDS011;58851;42.984;20.336;2023-02-24T01:07:52;103.70;;;61.15;;
55330;SDS011;58851;42.984;20.336;2023-02-24T01:10:17;89.82;;;60.83;;
55330;SDS011;58851;42.984;20.336;2023-02-24T01:12:44;101.25;;;67.95;;
55330;SDS011;58851;42.984;20.336;2023-02-24T01:15:18;123.60;;;75.60;;
55330;SDS011;58851;42.984;20.336;2023-02-24T01:17:46;146.20;;;94.80;;
55330;SDS011;58851;42.984;20.336;2023-02-24T01:20:12;149.23;;;93.88;;
55330;SDS011;58851;42.984;20.336;2023-02-24T01:22:47;144.77;;;93.85;;
55330;SDS011;58851;42.984;20.336;2023-02-24T01:25:14;149.25;;;92.05;;
55330;SDS011;58851;42.984;20.336;2023-02-24T01:27:40;194.35;;;118.05;;
55330;SDS011;58851;42.984;20.336;2023-02-24T01:30:09;170.82;;;110.30;;
55330;SDS011;58851;42.984;20.336;2023-02-24T01:32:40;166.07;;;106.45;;
55330;SDS011;58851;42.984;20.336;2023-02-24T01:35:07;158.68;;;102.45;;
55330;SDS011;58851;42.984;20.336;2023-02-24T01:37:33;107.90;;;72.10;;
55330;SDS011;58851;42.984;20.336;2023-02-24T01:39:59;113.07;;;71.35;;
55330;SDS011;58851;42.984;20.336;2023-02-24T01:42:34;106.25;;;67.85;;
55330;SDS011;58851;42.984;20.336;2023-02-24T01:45:02;115.75;;;72.43;;
55330;SDS011;58851;42.984;20.336;2023-02-24T01:47:37;118.72;;;72.60;;
55330;SDS011;58851;42.984;20.336;2023-02-24T01:50:03;114.68;;;73.90;;
55330;SDS011;58851;42.984;20.336;2023-02-24T01:52:30;116.47;;;69.78;;
55330;SDS011;58851;42.984;20.336;2023-02-24T01:55:08;114.82;;;74.72;;
55330;SDS011;58851;42.984;20.336;2023-02-24T01:57:40;135.68;;;85.35;;
55330;SDS011;58851;42.984;20.336;2023-02-24T02:00:08;137.13;;;84.35;;
55330;SDS011;58851;42.984;20.336;2023-02-24T02:02:36;130.48;;;81.43;;
55330;SDS011;58851;42.984;20.336;2023-02-24T02:05:06;177.23;;;103.05;;
55330;SDS011;58851;42.984;20.336;2023-02-24T02:07:33;191.98;;;109.03;;
55330;SDS011;58851;42.984;20.336;2023-02-24T02:10:03;165.05;;;93.13;;
55330;SDS011;58851;42.984;20.336;2023-02-24T02:12:31;141.77;;;86.40;;
55330;SDS011;58851;42.984;20.336;2023-02-24T02:15:02;140.70;;;86.25;;
55330;SDS011;58851;42.984;20.336;2023-02-24T02:26:21;128.82;;;84.03;;
55330;SDS011;58851;42.984;20.336;2023-02-24T02:32:12;135.90;;;85.70;;
55330;SDS011;58851;42.984;20.336;2023-02-24T02:35:00;139.85;;;88.97;;
55330;SDS011;58851;42.984;20.336;2023-02-24T02:37:35;148.02;;;93.55;;
55330;SDS011;58851;42.984;20.336;2023-02-24T02:40:13;161.45;;;98.55;;
55330;SDS011;58851;42.984;20.336;2023-02-24T02:45:39;161.20;;;101.40;;
55330;SDS011;58851;42.984;20.336;2023-02-24T02:48:38;156.10;;;93.20;;
55330;SDS011;58851;42.984;20.336;2023-02-24T02:51:31;99.13;;;66.38;;
55330;SDS011;58851;42.984;20.336;2023-02-24T02:59:36;59.63;;;39.60;;
55330;SDS011;58851;42.984;20.336;2023-02-24T03:02:13;68.15;;;41.15;;
55330;SDS011;58851;42.984;20.336;2023-02-24T03:04:55;66.90;;;40.03;;
55330;SDS011;58851;42.984;20.336;2023-02-24T03:07:25;69.75;;;45.60;;
55330;SDS011;58851;42.984;20.336;2023-02-24T03:09:58;103.38;;;58.78;;
55330;SDS011;58851;42.984;20.336;2023-02-24T03:12:30;126.13;;;77.15;;
55330;SDS011;58851;42.984;20.336;2023-02-24T03:14:59;130.75;;;78.90;;
55330;SDS011;58851;42.984;20.336;2023-02-24T03:17:29;130.18;;;82.22;;
55330;SDS011;58851;42.984;20.336;2023-02-24T03:20:41;122.68;;;81.03;;
55330;SDS011;58851;42.984;20.336;2023-02-24T03:23:06;122.40;;;77.75;;
55330;SDS011;58851;42.984;20.336;2023-02-24T03:25:53;116.28;;;74.32;;
55330;SDS011;58851;42.984;20.336;2023-02-24T03:28:35;121.10;;;77.53;;
55330;SDS011;58851;42.984;20.336;2023-02-24T03:31:08;120.63;;;72.53;;
55330;SDS011;58851;42.984;20.336;2023-02-24T03:36:05;124.00;;;73.60;;
55330;SDS011;58851;42.984;20.336;2023-02-24T03:38:33;121.38;;;76.72;;
55330;SDS011;58851;42.984;20.336;2023-02-24T03:41:02;123.75;;;77.88;;
55330;SDS011;58851;42.984;20.336;2023-02-24T03:43:35;116.88;;;75.72;;
55330;SDS011;58851;42.984;20.336;2023-02-24T03:46:10;113.53;;;73.10;;
55330;SDS011;58851;42.984;20.336;2023-02-24T03:48:41;118.45;;;73.40;;
55330;SDS011;58851;42.984;20.336;2023-02-24T03:51:14;128.35;;;81.68;;
55330;SDS011;58851;42.984;20.336;2023-02-24T04:02:02;102.90;;;61.77;;
55330;SDS011;58851;42.984;20.336;2023-02-24T04:04:36;72.65;;;46.25;;
55330;SDS011;58851;42.984;20.336;2023-02-24T04:15:18;84.00;;;56.55;;
55330;SDS011;58851;42.984;20.336;2023-02-24T04:17:49;99.13;;;59.90;;
55330;SDS011;58851;42.984;20.336;2023-02-24T04:20:22;103.20;;;62.30;;
55330;SDS011;58851;42.984;20.336;2023-02-24T04:22:55;109.68;;;70.10;;
55330;SDS011;58851;42.984;20.336;2023-02-24T04:25:26;122.60;;;75.57;;
55330;SDS011;58851;42.984;20.336;2023-02-24T04:27:54;117.43;;;78.43;;
55330;SDS011;58851;42.984;20.336;2023-02-24T04:30:23;122.60;;;83.43;;
55330;SDS011;58851;42.984;20.336;2023-02-24T04:32:51;119.68;;;80.07;;
55330;SDS011;58851;42.984;20.336;2023-02-24T04:35:18;124.78;;;85.05;;
55330;SDS011;58851;42.984;20.336;2023-02-24T04:37:46;126.20;;;84.18;;
55330;SDS011;58851;42.984;20.336;2023-02-24T04:40:15;127.32;;;82.38;;
55330;SDS011;58851;42.984;20.336;2023-02-24T04:42:43;117.28;;;78.78;;
55330;SDS011;58851;42.984;20.336;2023-02-24T04:45:16;141.93;;;94.45;;
55330;SDS011;58851;42.984;20.336;2023-02-24T04:47:47;129.55;;;84.93;;
55330;SDS011;58851;42.984;20.336;2023-02-24T04:50:18;114.82;;;70.60;;
55330;SDS011;58851;42.984;20.336;2023-02-24T04:52:48;205.85;;;108.30;;
55330;SDS011;58851;42.984;20.336;2023-02-24T04:55:19;270.55;;;134.25;;
55330;SDS011;58851;42.984;20.336;2023-02-24T04:57:53;426.98;;;210.07;;
55330;SDS011;58851;42.984;20.336;2023-02-24T05:00:20;442.67;;;228.57;;
55330;SDS011;58851;42.984;20.336;2023-02-24T05:02:54;540.70;;;304.25;;
55330;SDS011;58851;42.984;20.336;2023-02-24T05:05:21;612.53;;;355.10;;
55330;SDS011;58851;42.984;20.336;2023-02-24T05:08:00;621.92;;;368.17;;
55330;SDS011;58851;42.984;20.336;2023-02-24T05:10:38;546.20;;;325.63;;
55330;SDS011;58851;42.984;20.336;2023-02-24T05:13:06;440.63;;;236.68;;
55330;SDS011;58851;42.984;20.336;2023-02-24T05:15:33;319.05;;;173.02;;
55330;SDS011;58851;42.984;20.336;2023-02-24T05:18:03;249.95;;;138.63;;
55330;SDS011;58851;42.984;20.336;2023-02-24T05:20:36;220.63;;;126.53;;
55330;SDS011;58851;42.984;20.336;2023-02-24T05:23:26;161.05;;;99.50;;
55330;SDS011;58851;42.984;20.336;2023-02-24T05:25:58;95.57;;;64.15;;
55330;SDS011;58851;42.984;20.336;2023-02-24T05:28:25;83.80;;;54.92;;
55330;SDS011;58851;42.984;20.336;2023-02-24T05:31:02;85.15;;;55.03;;
55330;SDS011;58851;42.984;20.336;2023-02-24T05:35:55;75.38;;;44.97;;
55330;SDS011;58851;42.984;20.336;2023-02-24T05:38:27;72.95;;;44.58;;
55330;SDS011;58851;42.984;20.336;2023-02-24T05:40:53;81.45;;;46.78;;
55330;SDS011;58851;42.984;20.336;2023-02-24T05:43:28;74.35;;;46.47;;
55330;SDS011;58851;42.984;20.336;2023-02-24T05:45:58;90.75;;;58.65;;
55330;SDS011;58851;42.984;20.336;2023-02-24T05:48:28;96.00;;;59.58;;
55330;SDS011;58851;42.984;20.336;2023-02-24T05:51:02;103.05;;;62.38;;
55330;SDS011;58851;42.984;20.336;2023-02-24T05:53:32;76.93;;;46.72;;
55330;SDS011;58851;42.984;20.336;2023-02-24T05:56:01;67.18;;;41.25;;
55330;SDS011;58851;42.984;20.336;2023-02-24T05:58:29;62.40;;;39.42;;
55330;SDS011;58851;42.984;20.336;2023-02-24T06:00:56;159.88;;;95.20;;
55330;SDS011;58851;42.984;20.336;2023-02-24T06:03:29;218.68;;;115.43;;
55330;SDS011;58851;42.984;20.336;2023-02-24T06:05:57;336.77;;;168.95;;
55330;SDS011;58851;42.984;20.336;2023-02-24T06:08:31;390.60;;;191.50;;
55330;SDS011;58851;42.984;20.336;2023-02-24T06:11:07;314.52;;;164.60;;
55330;SDS011;58851;42.984;20.336;2023-02-24T06:13:34;244.30;;;136.13;;
55330;SDS011;58851;42.984;20.336;2023-02-24T06:16:04;225.50;;;124.13;;
55330;SDS011;58851;42.984;20.336;2023-02-24T06:18:30;184.07;;;106.95;;
55330;SDS011;58851;42.984;20.336;2023-02-24T06:20:59;225.35;;;145.73;;
55330;SDS011;58851;42.984;20.336;2023-02-24T06:23:26;285.42;;;189.98;;
55330;SDS011;58851;42.984;20.336;2023-02-24T06:25:52;204.25;;;133.05;;
55330;SDS011;58851;42.984;20.336;2023-02-24T06:28:22;166.50;;;110.05;;
55330;SDS011;58851;42.984;20.336;2023-02-24T06:30:48;127.78;;;84.25;;
55330;SDS011;58851;42.984;20.336;2023-02-24T06:33:15;110.53;;;70.57;;
55330;SDS011;58851;42.984;20.336;2023-02-24T06:35:40;123.13;;;71.53;;
55330;SDS011;58851;42.984;20.336;2023-02-24T06:38:06;97.60;;;63.28;;
55330;SDS011;58851;42.984;20.336;2023-02-24T06:40:32;113.18;;;73.00;;
55330;SDS011;58851;42.984;20.336;2023-02-24T06:42:58;173.90;;;99.50;;
55330;SDS011;58851;42.984;20.336;2023-02-24T06:45:23;180.52;;;102.25;;
55330;SDS011;58851;42.984;20.336;2023-02-24T06:47:50;207.00;;;122.50;;
55330;SDS011;58851;42.984;20.336;2023-02-24T06:50:16;221.30;;;130.57;;
55330;SDS011;58851;42.984;20.336;2023-02-24T06:52:44;266.23;;;155.20;;
55330;SDS011;58851;42.984;20.336;2023-02-24T06:55:11;226.02;;;135.43;;
55330;SDS011;58851;42.984;20.336;2023-02-24T06:57:58;207.13;;;122.32;;
55330;SDS011;58851;42.984;20.336;2023-02-24T07:00:30;207.95;;;121.18;;
55330;SDS011;58851;42.984;20.336;2023-02-24T07:03:45;203.13;;;121.20;;
55330;SDS011;58851;42.984;20.336;2023-02-24T07:06:04;206.43;;;131.05;;
55330;SDS011;58851;42.984;20.336;2023-02-24T07:08:48;189.07;;;119.63;;
55330;SDS011;58851;42.984;20.336;2023-02-24T07:11:17;165.75;;;109.65;;
55330;SDS011;58851;42.984;20.336;2023-02-24T07:13:48;159.73;;;105.88;;
55330;SDS011;58851;42.984;20.336;2023-02-24T07:16:17;156.27;;;102.05;;
55330;SDS011;58851;42.984;20.336;2023-02-24T07:18:52;173.73;;;108.55;;
55330;SDS011;58851;42.984;20.336;2023-02-24T07:21:23;138.15;;;93.18;;
55330;SDS011;58851;42.984;20.336;2023-02-24T07:23:50;136.02;;;84.88;;
55330;SDS011;58851;42.984;20.336;2023-02-24T07:26:20;143.02;;;93.60;;
55330;SDS011;58851;42.984;20.336;2023-02-24T07:28:51;164.07;;;105.85;;
55330;SDS011;58851;42.984;20.336;2023-02-24T07:31:19;140.00;;;95.57;;
55330;SDS011;58851;42.984;20.336;2023-02-24T07:33:47;161.30;;;105.68;;
55330;SDS011;58851;42.984;20.336;2023-02-24T07:36:16;166.20;;;106.07;;
55330;SDS011;58851;42.984;20.336;2023-02-24T07:38:47;158.40;;;106.63;;
55330;SDS011;58851;42.984;20.336;2023-02-24T07:41:18;172.13;;;110.90;;
55330;SDS011;58851;42.984;20.336;2023-02-24T07:43:47;178.55;;;118.28;;
55330;SDS011;58851;42.984;20.336;2023-02-24T07:46:18;157.05;;;101.10;;
55330;SDS011;58851;42.984;20.336;2023-02-24T07:48:48;127.72;;;80.30;;
55330;SDS011;58851;42.984;20.336;2023-02-24T07:51:16;116.57;;;79.80;;
55330;SDS011;58851;42.984;20.336;2023-02-24T07:53:47;136.95;;;84.88;;
55330;SDS011;58851;42.984;20.336;2023-02-24T07:56:18;147.65;;;94.40;;
55330;SDS011;58851;42.984;20.336;2023-02-24T07:58:50;149.35;;;98.82;;
55330;SDS011;58851;42.984;20.336;2023-02-24T08:01:23;164.02;;;108.13;;
55330;SDS011;58851;42.984;20.336;2023-02-24T08:03:54;139.88;;;91.10;;
55330;SDS011;58851;42.984;20.336;2023-02-24T08:06:25;133.35;;;89.93;;
55330;SDS011;58851;42.984;20.336;2023-02-24T08:09:02;138.88;;;91.68;;
55330;SDS011;58851;42.984;20.336;2023-02-24T08:11:55;145.82;;;94.30;;
55330;SDS011;58851;42.984;20.336;2023-02-24T08:14:24;110.35;;;80.32;;
55330;SDS011;58851;42.984;20.336;2023-02-24T08:16:56;126.10;;;85.67;;
55330;SDS011;58851;42.984;20.336;2023-02-24T08:19:23;117.53;;;84.00;;
55330;SDS011;58851;42.984;20.336;2023-02-24T08:21:56;118.97;;;82.75;;
55330;SDS011;58851;42.984;20.336;2023-02-24T08:24:47;117.40;;;76.43;;
55330;SDS011;58851;42.984;20.336;2023-02-24T08:27:17;97.40;;;67.55;;
55330;SDS011;58851;42.984;20.336;2023-02-24T08:29:53;97.38;;;64.50;;
55330;SDS011;58851;42.984;20.336;2023-02-24T08:32:26;94.68;;;64.35;;
55330;SDS011;58851;42.984;20.336;2023-02-24T08:34:58;109.50;;;67.95;;
55330;SDS011;58851;42.984;20.336;2023-02-24T08:37:28;104.13;;;68.57;;
55330;SDS011;58851;42.984;20.336;2023-02-24T08:40:04;91.93;;;63.42;;
55330;SDS011;58851;42.984;20.336;2023-02-24T08:45:44;87.63;;;56.90;;
55330;SDS011;58851;42.984;20.336;2023-02-24T08:48:20;82.35;;;54.55;;
55330;SDS011;58851;42.984;20.336;2023-02-24T08:50:56;87.63;;;54.88;;
55330;SDS011;58851;42.984;20.336;2023-02-24T08:53:25;78.82;;;50.95;;
55330;SDS011;58851;42.984;20.336;2023-02-24T08:55:55;89.80;;;58.20;;
55330;SDS011;58851;42.984;20.336;2023-02-24T08:58:34;89.03;;;59.03;;
55330;SDS011;58851;42.984;20.336;2023-02-24T09:01:06;111.35;;;67.32;;
55330;SDS011;58851;42.984;20.336;2023-02-24T09:03:43;107.40;;;67.32;;
55330;SDS011;58851;42.984;20.336;2023-02-24T09:06:12;101.65;;;65.50;;
55330;SDS011;58851;42.984;20.336;2023-02-24T09:08:41;100.45;;;62.67;;
55330;SDS011;58851;42.984;20.336;2023-02-24T09:11:12;115.30;;;74.75;;
55330;SDS011;58851;42.984;20.336;2023-02-24T09:13:40;96.00;;;58.50;;
55330;SDS011;58851;42.984;20.336;2023-02-24T09:16:18;90.30;;;56.97;;
55330;SDS011;58851;42.984;20.336;2023-02-24T09:18:47;97.70;;;56.90;;
55330;SDS011;58851;42.984;20.336;2023-02-24T09:21:35;65.75;;;37.10;;
55330;SDS011;58851;42.984;20.336;2023-02-24T09:24:14;48.28;;;26.17;;
55330;SDS011;58851;42.984;20.336;2023-02-24T09:26:51;49.05;;;25.83;;
55330;SDS011;58851;42.984;20.336;2023-02-24T09:29:26;59.15;;;24.88;;
55330;SDS011;58851;42.984;20.336;2023-02-24T09:31:59;34.88;;;14.60;;
55330;SDS011;58851;42.984;20.336;2023-02-24T09:34:36;42.20;;;23.90;;
55330;SDS011;58851;42.984;20.336;2023-02-24T09:37:13;35.63;;;14.88;;
55330;SDS011;58851;42.984;20.336;2023-02-24T09:39:51;19.52;;;7.78;;
55330;SDS011;58851;42.984;20.336;2023-02-24T09:42:24;38.67;;;14.93;;
55330;SDS011;58851;42.984;20.336;2023-02-24T09:45:04;29.98;;;10.80;;
55330;SDS011;58851;42.984;20.336;2023-02-24T09:47:39;31.40;;;9.90;;
55330;SDS011;58851;42.984;20.336;2023-02-24T09:52:54;26.92;;;10.88;;
55330;SDS011;58851;42.984;20.336;2023-02-24T09:55:47;26.63;;;5.78;;
55330;SDS011;58851;42.984;20.336;2023-02-24T10:07:17;27.80;;;8.02;;
55330;SDS011;58851;42.984;20.336;2023-02-24T10:12:54;30.73;;;12.70;;
55330;SDS011;58851;42.984;20.336;2023-02-24T10:15:40;43.97;;;22.35;;
55330;SDS011;58851;42.984;20.336;2023-02-24T10:21:25;34.10;;;18.98;;
55330;SDS011;58851;42.984;20.336;2023-02-24T10:24:22;49.22;;;23.42;;
55330;SDS011;58851;42.984;20.336;2023-02-24T10:32:31;29.75;;;9.77;;
55330;SDS011;58851;42.984;20.336;2023-02-24T10:35:08;42.58;;;9.75;;
55330;SDS011;58851;42.984;20.336;2023-02-24T10:37:41;19.73;;;6.47;;
55330;SDS011;58851;42.984;20.336;2023-02-24T10:40:08;21.88;;;8.63;;
55330;SDS011;58851;42.984;20.336;2023-02-24T10:42:34;25.75;;;9.52;;
55330;SDS011;58851;42.984;20.336;2023-02-24T10:47:41;105.40;;;63.58;;
55330;SDS011;58851;42.984;20.336;2023-02-24T10:53:16;24.85;;;10.13;;
55330;SDS011;58851;42.984;20.336;2023-02-24T10:56:01;29.02;;;8.25;;
55330;SDS011;58851;42.984;20.336;2023-02-24T10:59:00;24.10;;;7.85;;
55330;SDS011;58851;42.984;20.336;2023-02-24T11:01:51;30.50;;;9.90;;
55330;SDS011;58851;42.984;20.336;2023-02-24T11:04:28;15.65;;;6.65;;
55330;SDS011;58851;42.984;20.336;2023-02-24T11:07:24;34.67;;;8.63;;
55330;SDS011;58851;42.984;20.336;2023-02-24T11:13:11;37.95;;;11.20;;
55330;SDS011;58851;42.984;20.336;2023-02-24T11:15:59;39.70;;;16.25;;
55330;SDS011;58851;42.984;20.336;2023-02-24T11:18:45;62.85;;;16.83;;
55330;SDS011;58851;42.984;20.336;2023-02-24T11:21:16;38.40;;;14.93;;
55330;SDS011;58851;42.984;20.336;2023-02-24T11:23:44;34.55;;;12.90;;
55330;SDS011;58851;42.984;20.336;2023-02-24T11:26:20;25.05;;;8.52;;
55330;SDS011;58851;42.984;20.336;2023-02-24T11:34:35;21.60;;;9.18;;
55330;SDS011;58851;42.984;20.336;2023-02-24T11:42:38;33.00;;;10.13;;
55330;SDS011;58851;42.984;20.336;2023-02-24T11:48:09;37.45;;;14.38;;
55330;SDS011;58851;42.984;20.336;2023-02-24T11:53:30;31.23;;;9.65;;
55330;SDS011;58851;42.984;20.336;2023-02-24T11:58:49;41.20;;;15.73;;
55330;SDS011;58851;42.984;20.336;2023-02-24T12:01:47;26.05;;;13.07;;
55330;SDS011;58851;42.984;20.336;2023-02-24T12:05:02;32.17;;;8.52;;
55330;SDS011;58851;42.984;20.336;2023-02-24T12:07:34;24.63;;;10.25;;
55330;SDS011;58851;42.984;20.336;2023-02-24T12:12:38;23.38;;;9.43;;
55330;SDS011;58851;42.984;20.336;2023-02-24T12:15:12;23.70;;;10.02;;
55330;SDS011;58851;42.984;20.336;2023-02-24T12:17:43;24.23;;;9.75;;
55330;SDS011;58851;42.984;20.336;2023-02-24T12:26:01;27.55;;;11.57;;
55330;SDS011;58851;42.984;20.336;2023-02-24T12:36:42;35.33;;;13.13;;
55330;SDS011;58851;42.984;20.336;2023-02-24T12:39:21;40.08;;;13.95;;
55330;SDS011;58851;42.984;20.336;2023-02-24T12:42:14;44.17;;;12.10;;
55330;SDS011;58851;42.984;20.336;2023-02-24T12:52:57;34.20;;;11.00;;
55330;SDS011;58851;42.984;20.336;2023-02-24T12:56:05;50.35;;;22.27;;
55330;SDS011;58851;42.984;20.336;2023-02-24T12:58:53;26.73;;;10.65;;
55330;SDS011;58851;42.984;20.336;2023-02-24T13:04:13;31.80;;;13.98;;
55330;SDS011;58851;42.984;20.336;2023-02-24T13:07:03;48.65;;;19.05;;
55330;SDS011;58851;42.984;20.336;2023-02-24T13:09:51;41.35;;;16.90;;
55330;SDS011;58851;42.984;20.336;2023-02-24T13:12:27;39.92;;;11.43;;
55330;SDS011;58851;42.984;20.336;2023-02-24T13:15:14;28.13;;;10.45;;
55330;SDS011;58851;42.984;20.336;2023-02-24T13:17:45;22.20;;;8.45;;
55330;SDS011;58851;42.984;20.336;2023-02-24T13:20:24;57.80;;;19.60;;
55330;SDS011;58851;42.984;20.336;2023-02-24T13:23:02;62.55;;;26.63;;
55330;SDS011;58851;42.984;20.336;2023-02-24T13:25:41;40.85;;;11.02;;
55330;SDS011;58851;42.984;20.336;2023-02-24T13:28:29;35.63;;;14.52;;
55330;SDS011;58851;42.984;20.336;2023-02-24T13:31:09;26.88;;;9.32;;
55330;SDS011;58851;42.984;20.336;2023-02-24T13:33:41;85.82;;;43.63;;
55330;SDS011;58851;42.984;20.336;2023-02-24T13:36:18;29.05;;;12.52;;
55330;SDS011;58851;42.984;20.336;2023-02-24T13:38:46;56.15;;;27.13;;
55330;SDS011;58851;42.984;20.336;2023-02-24T13:43:59;49.05;;;17.10;;
55330;SDS011;58851;42.984;20.336;2023-02-24T13:46:34;40.05;;;15.75;;
55330;SDS011;58851;42.984;20.336;2023-02-24T14:02:46;48.58;;;15.27;;
55330;SDS011;58851;42.984;20.336;2023-02-24T14:07:48;22.40;;;10.20;;
55330;SDS011;58851;42.984;20.336;2023-02-24T14:10:18;28.83;;;11.77;;
55330;SDS011;58851;42.984;20.336;2023-02-24T14:12:46;33.97;;;9.73;;
55330;SDS011;58851;42.984;20.336;2023-02-24T14:15:23;29.92;;;10.32;;
55330;SDS011;58851;42.984;20.336;2023-02-24T14:17:57;32.33;;;12.55;;
55330;SDS011;58851;42.984;20.336;2023-02-24T14:20:32;30.77;;;10.75;;
55330;SDS011;58851;42.984;20.336;2023-02-24T14:22:59;27.67;;;8.95;;
55330;SDS011;58851;42.984;20.336;2023-02-24T14:25:29;27.27;;;9.27;;
55330;SDS011;58851;42.984;20.336;2023-02-24T14:27:59;32.15;;;9.55;;
55330;SDS011;58851;42.984;20.336;2023-02-24T14:30:27;27.80;;;8.48;;
55330;SDS011;58851;42.984;20.336;2023-02-24T14:32:58;35.85;;;11.30;;
55330;SDS011;58851;42.984;20.336;2023-02-24T14:35:31;41.03;;;12.25;;
55330;SDS011;58851;42.984;20.336;2023-02-24T14:38:05;50.60;;;21.48;;
55330;SDS011;58851;42.984;20.336;2023-02-24T14:40:50;30.73;;;11.57;;
55330;SDS011;58851;42.984;20.336;2023-02-24T14:43:16;38.85;;;14.38;;
55330;SDS011;58851;42.984;20.336;2023-02-24T14:45:46;39.60;;;13.77;;
55330;SDS011;58851;42.984;20.336;2023-02-24T14:48:50;27.73;;;10.82;;
55330;SDS011;58851;42.984;20.336;2023-02-24T14:51:27;34.90;;;16.27;;
55330;SDS011;58851;42.984;20.336;2023-02-24T14:54:02;36.97;;;12.27;;
55330;SDS011;58851;42.984;20.336;2023-02-24T14:56:32;35.08;;;11.13;;
55330;SDS011;58851;42.984;20.336;2023-02-24T15:01:32;44.80;;;15.30;;
55330;SDS011;58851;42.984;20.336;2023-02-24T15:04:11;34.75;;;13.07;;
55330;SDS011;58851;42.984;20.336;2023-02-24T15:06:56;31.02;;;14.77;;
55330;SDS011;58851;42.984;20.336;2023-02-24T15:09:24;35.80;;;17.60;;
55330;SDS011;58851;42.984;20.336;2023-02-24T15:11:57;38.10;;;14.82;;
55330;SDS011;58851;42.984;20.336;2023-02-24T15:14:27;41.28;;;15.90;;
55330;SDS011;58851;42.984;20.336;2023-02-24T15:17:08;26.70;;;12.80;;
55330;SDS011;58851;42.984;20.336;2023-02-24T15:19:39;36.67;;;17.83;;
55330;SDS011;58851;42.984;20.336;2023-02-24T15:22:28;57.85;;;16.63;;
55330;SDS011;58851;42.984;20.336;2023-02-24T15:27:52;37.55;;;16.85;;
55330;SDS011;58851;42.984;20.336;2023-02-24T15:33:04;30.05;;;14.48;;
55330;SDS011;58851;42.984;20.336;2023-02-24T15:35:47;43.35;;;16.95;;
55330;SDS011;58851;42.984;20.336;2023-02-24T15:38:19;23.27;;;11.02;;
55330;SDS011;58851;42.984;20.336;2023-02-24T15:40:53;45.07;;;16.10;;
55330;SDS011;58851;42.984;20.336;2023-02-24T15:43:43;35.70;;;15.38;;
55330;SDS011;58851;42.984;20.336;2023-02-24T15:48:43;45.25;;;20.23;;
55330;SDS011;58851;42.984;20.336;2023-02-24T15:51:55;41.80;;;20.38;;
55330;SDS011;58851;42.984;20.336;2023-02-24T15:54:01;46.53;;;22.55;;
55330;SDS011;58851;42.984;20.336;2023-02-24T15:56:30;30.70;;;13.93;;
55330;SDS011;58851;42.984;20.336;2023-02-24T15:58:57;61.60;;;35.00;;
55330;SDS011;58851;42.984;20.336;2023-02-24T16:01:28;55.30;;;30.63;;
55330;SDS011;58851;42.984;20.336;2023-02-24T16:03:54;33.78;;;16.25;;
55330;SDS011;58851;42.984;20.336;2023-02-24T16:06:21;35.70;;;16.85;;
55330;SDS011;58851;42.984;20.336;2023-02-24T16:08:48;38.15;;;17.52;;
55330;SDS011;58851;42.984;20.336;2023-02-24T16:11:17;43.38;;;20.25;;
55330;SDS011;58851;42.984;20.336;2023-02-24T16:13:53;34.22;;;16.85;;
55330;SDS011;58851;42.984;20.336;2023-02-24T16:16:21;34.50;;;17.33;;
55330;SDS011;58851;42.984;20.336;2023-02-24T16:18:48;36.63;;;16.98;;
55330;SDS011;58851;42.984;20.336;2023-02-24T16:21:15;58.38;;;22.02;;
55330;SDS011;58851;42.984;20.336;2023-02-24T16:23:41;45.97;;;20.38;;
55330;SDS011;58851;42.984;20.336;2023-02-24T16:26:12;31.25;;;15.45;;
55330;SDS011;58851;42.984;20.336;2023-02-24T16:28:45;80.20;;;38.13;;
55330;SDS011;58851;42.984;20.336;2023-02-24T16:31:17;190.30;;;112.07;;
55330;SDS011;58851;42.984;20.336;2023-02-24T16:33:43;160.70;;;127.07;;
55330;SDS011;58851;42.984;20.336;2023-02-24T16:36:10;80.70;;;53.47;;
55330;SDS011;58851;42.984;20.336;2023-02-24T16:38:37;78.07;;;43.28;;
55330;SDS011;58851;42.984;20.336;2023-02-24T16:41:03;47.05;;;22.88;;
55330;SDS011;58851;42.984;20.336;2023-02-24T16:43:29;49.88;;;22.42;;
55330;SDS011;58851;42.984;20.336;2023-02-24T16:46:01;57.80;;;32.65;;
55330;SDS011;58851;42.984;20.336;2023-02-24T16:48:28;76.10;;;46.70;;
55330;SDS011;58851;42.984;20.336;2023-02-24T16:50:59;64.03;;;42.88;;
55330;SDS011;58851;42.984;20.336;2023-02-24T16:53:25;40.78;;;21.00;;
55330;SDS011;58851;42.984;20.336;2023-02-24T16:55:51;44.90;;;23.58;;
55330;SDS011;58851;42.984;20.336;2023-02-24T16:58:17;33.15;;;21.45;;
55330;SDS011;58851;42.984;20.336;2023-02-24T17:00:44;58.70;;;28.38;;
55330;SDS011;58851;42.984;20.336;2023-02-24T17:03:18;56.17;;;29.92;;
55330;SDS011;58851;42.984;20.336;2023-02-24T17:05:47;102.28;;;52.60;;
55330;SDS011;58851;42.984;20.336;2023-02-24T17:08:14;100.43;;;48.60;;